Time;durP1;ratioP1;P1;durP2;ratioP2;P2;SDS_P1;SDS_P2;PMS_P1;PMS_P2;Temp;Humidity;BMP_temperature;BMP_pressure;BME280_temperature;BME280_humidity;BME280_pressure;Samples;Min_cycle;Max_cycle;Signal;HPM_P1;HPM_P2
2023/08/29 00:02:21;;;;;;;2.78;1.23;;;14.20;1.00;;;;;;5033335;28;20394;-81
2023/08/29 00:04:47;;;;;;;1.50;0.90;;;14.20;1.00;;;;;;5032853;28;20037;-81
2023/08/29 00:07:13;;;;;;;1.85;1.08;;;14.20;1.00;;;;;;5027964;28;20052;-81
2023/08/29 00:09:39;;;;;;;2.60;1.00;;;14.20;1.00;;;;;;5041544;28;20044;-81
2023/08/29 00:12:06;;;;;;;4.75;1.10;;;14.20;1.00;;;;;;5041197;28;20407;-81
2023/08/29 00:14:32;;;;;;;2.85;1.13;;;14.20;1.00;;;;;;5027129;28;20041;-81
2023/08/29 00:16:58;;;;;;;1.98;1.13;;;14.30;1.00;;;;;;5050682;28;20035;-81
2023/08/29 00:19:24;;;;;;;2.17;1.05;;;14.20;1.00;;;;;;5051398;28;20033;-81
2023/08/29 00:21:51;;;;;;;1.77;1.13;;;14.30;1.00;;;;;;5050824;28;20029;-81
2023/08/29 00:24:17;;;;;;;1.30;0.82;;;14.30;1.00;;;;;;5049924;28;20040;-81
2023/08/29 00:26:43;;;;;;;1.50;1.00;;;14.30;1.00;;;;;;5033369;28;20048;-81
2023/08/29 00:29:09;;;;;;;2.38;1.98;;;14.40;1.00;;;;;;5035013;28;20037;-81
2023/08/29 00:31:37;;;;;;;2.33;1.67;;;14.40;1.00;;;;;;5051687;28;20036;-81
2023/08/29 00:34:04;;;;;;;2.28;1.45;;;14.40;1.00;;;;;;5023301;28;20037;-81
2023/08/29 00:36:31;;;;;;;1.83;1.10;;;14.40;1.00;;;;;;5041320;28;20045;-81
2023/08/29 00:38:59;;;;;;;2.97;1.23;;;14.40;1.00;;;;;;5032563;28;20045;-81
2023/08/29 00:41:34;;;;;;;1.52;1.10;;;14.40;1.00;;;;;;5052053;28;20036;-81
2023/08/29 00:44:00;;;;;;;2.03;0.90;;;14.40;1.00;;;;;;5051706;28;20339;-81
2023/08/29 00:46:27;;;;;;;2.88;2.33;;;14.40;1.00;;;;;;5051446;28;20462;-81
2023/08/29 00:48:54;;;;;;;1.70;1.17;;;14.40;1.00;;;;;;5050291;28;20049;-82
2023/08/29 00:51:20;;;;;;;1.92;1.10;;;14.40;1.00;;;;;;5050987;28;20033;-82
2023/08/29 00:53:47;;;;;;;3.38;1.20;;;14.40;1.00;;;;;;5030987;28;20033;-82
2023/08/29 00:56:17;;;;;;;2.83;1.30;;;14.40;1.00;;;;;;5032603;28;20052;-81
2023/08/29 00:58:44;;;;;;;3.10;1.60;;;14.30;1.00;;;;;;5032465;28;20474;-82
2023/08/29 01:01:12;;;;;;;2.38;1.35;;;14.30;1.00;;;;;;5013836;28;20041;-81
2023/08/29 01:03:39;;;;;;;1.83;0.90;;;14.30;1.00;;;;;;5052654;28;20048;-83
2023/08/29 01:06:05;;;;;;;1.98;1.42;;;14.30;1.00;;;;;;5026971;28;20049;-81
2023/08/29 01:08:33;;;;;;;2.17;1.25;;;14.20;1.00;;;;;;5053744;28;20487;-81
2023/08/29 01:11:06;;;;;;;1.40;0.93;;;14.20;1.00;;;;;;5052697;28;20025;-81
2023/08/29 01:13:47;;;;;;;2.97;1.33;;;14.20;1.00;;;;;;5024695;28;20041;-81
2023/08/29 01:16:18;;;;;;;1.85;0.93;;;14.20;1.00;;;;;;5052296;28;20048;-81
2023/08/29 01:18:46;;;;;;;2.40;1.20;;;14.20;1.00;;;;;;5051453;28;20056;-81
2023/08/29 01:21:30;;;;;;;6.40;2.75;;;14.20;1.00;;;;;;5034191;28;20406;-82
2023/08/29 01:24:16;;;;;;;2.58;1.30;;;14.20;1.00;;;;;;5049941;28;20042;-81
2023/08/29 01:26:44;;;;;;;1.67;0.98;;;14.20;1.00;;;;;;5033457;28;20471;-82
2023/08/29 01:29:10;;;;;;;4.10;2.10;;;14.10;1.00;;;;;;5062349;28;20048;-81
2023/08/29 01:31:37;;;;;;;2.85;1.42;;;14.10;1.00;;;;;;5042429;28;20042;-81
2023/08/29 01:34:04;;;;;;;2.42;1.42;;;14.10;1.00;;;;;;5052518;28;20029;-81
2023/08/29 01:36:40;;;;;;;2.10;1.13;;;14.10;1.00;;;;;;5036559;28;20040;-81
2023/08/29 01:39:06;;;;;;;2.28;1.35;;;14.10;1.00;;;;;;5025303;28;20504;-81
2023/08/29 01:41:33;;;;;;;1.45;1.10;;;14.10;1.00;;;;;;5054585;28;20386;-81
2023/08/29 01:44:04;;;;;;;1.67;1.13;;;14.10;1.00;;;;;;5036426;28;20221;-81
2023/08/29 01:46:30;;;;;;;3.40;1.88;;;14.10;1.00;;;;;;5054524;28;20043;-81
2023/08/29 01:48:59;;;;;;;2.08;1.30;;;14.10;1.00;;;;;;5040829;28;20060;-81
2023/08/29 01:51:25;;;;;;;2.80;1.60;;;14.10;1.00;;;;;;5053990;28;20036;-81
2023/08/29 01:53:55;;;;;;;2.25;1.50;;;14.10;1.00;;;;;;5053512;28;20040;-81
2023/08/29 01:56:24;;;;;;;3.15;2.22;;;14.10;1.00;;;;;;5053021;28;20033;-81
2023/08/29 01:58:54;;;;;;;3.72;1.85;;;14.00;1.00;;;;;;5033896;28;20041;-81
2023/08/29 02:01:20;;;;;;;3.20;2.08;;;14.10;1.00;;;;;;5030887;28;20052;-81
2023/08/29 02:03:47;;;;;;;1.80;1.05;;;14.10;1.00;;;;;;5024214;28;20064;-81
2023/08/29 02:06:13;;;;;;;2.38;1.20;;;14.00;1.00;;;;;;5055577;28;20040;-81
2023/08/29 02:08:41;;;;;;;2.38;1.45;;;14.00;1.00;;;;;;5021813;28;20064;-83
2023/08/29 02:11:07;;;;;;;2.47;1.17;;;14.00;1.00;;;;;;5019316;28;20037;-81
2023/08/29 02:13:34;;;;;;;2.22;1.20;;;13.90;1.00;;;;;;5029807;28;20037;-81
2023/08/29 02:16:03;;;;;;;2.50;1.77;;;14.00;1.00;;;;;;5054170;28;20055;-81
2023/08/29 02:18:29;;;;;;;3.80;1.30;;;13.90;1.00;;;;;;5017949;28;20060;-80
2023/08/29 02:20:56;;;;;;;3.53;1.40;;;14.00;1.00;;;;;;5028204;28;20041;-81
2023/08/29 02:23:22;;;;;;;2.05;1.30;;;13.90;1.00;;;;;;5035385;28;20037;-81
2023/08/29 02:25:59;;;;;;;3.17;1.85;;;13.90;1.00;;;;;;5053329;28;20056;-81
2023/08/29 02:28:25;;;;;;;3.40;1.88;;;13.90;1.00;;;;;;5021107;28;20041;-81
2023/08/29 02:30:51;;;;;;;4.35;1.70;;;13.80;1.00;;;;;;5052913;28;20036;-82
2023/08/29 02:33:17;;;;;;;3.35;2.10;;;13.80;1.00;;;;;;5031187;28;20033;-82
2023/08/29 02:35:43;;;;;;;2.13;1.35;;;13.80;1.00;;;;;;5053115;28;20033;-83
2023/08/29 02:38:09;;;;;;;2.13;1.35;;;13.80;1.00;;;;;;5053203;28;20036;-81
2023/08/29 02:40:36;;;;;;;2.30;1.52;;;13.80;1.00;;;;;;5053343;28;20041;-82
2023/08/29 02:43:02;;;;;;;2.35;1.50;;;13.80;1.00;;;;;;5052769;28;20598;-81
2023/08/29 02:45:29;;;;;;;4.38;2.22;;;13.80;1.00;;;;;;5053210;28;20386;-81
2023/08/29 02:47:55;;;;;;;2.92;2.13;;;13.90;1.00;;;;;;5016188;28;20363;-81
2023/08/29 02:50:21;;;;;;;3.08;1.65;;;13.90;1.00;;;;;;5052998;28;20037;-82
2023/08/29 02:52:47;;;;;;;2.45;1.60;;;13.90;1.00;;;;;;5051478;28;20166;-82
2023/08/29 02:55:14;;;;;;;2.42;1.30;;;13.80;1.00;;;;;;5052909;28;20044;-81
2023/08/29 02:57:40;;;;;;;2.15;1.70;;;13.80;1.00;;;;;;5034820;28;20044;-82
2023/08/29 03:00:06;;;;;;;2.72;1.60;;;13.80;1.00;;;;;;5052469;28;20041;-81
2023/08/29 03:02:33;;;;;;;2.97;2.00;;;13.90;1.00;;;;;;5052025;28;20048;-81
2023/08/29 03:05:02;;;;;;;2.28;1.50;;;13.90;1.00;;;;;;5022827;28;20033;-81
2023/08/29 03:07:29;;;;;;;2.10;1.13;;;13.90;1.00;;;;;;5051022;28;20032;-81
2023/08/29 03:09:55;;;;;;;2.90;1.60;;;13.90;1.00;;;;;;5033956;28;20442;-81
2023/08/29 03:12:22;;;;;;;4.47;1.55;;;13.90;1.00;;;;;;5041803;28;20044;-81
2023/08/29 03:14:56;;;;;;;2.65;1.65;;;13.90;1.00;;;;;;5032848;28;20060;-81
2023/08/29 03:17:22;;;;;;;2.63;1.92;;;13.90;1.00;;;;;;5029420;28;20454;-81
2023/08/29 03:19:50;;;;;;;2.80;1.55;;;13.80;1.00;;;;;;5042946;28;20048;-81
2023/08/29 03:22:16;;;;;;;2.33;1.75;;;13.80;1.00;;;;;;5052597;28;20037;-82
2023/08/29 03:24:46;;;;;;;2.60;1.20;;;13.80;14.30;;;;;;5052716;28;20033;-82
2023/08/29 03:27:13;;;;;;;2.22;1.55;;;13.80;20.40;;;;;;5041960;28;20040;-81
2023/08/29 03:29:40;;;;;;;3.08;1.40;;;13.90;12.40;;;;;;5052832;28;20041;-81
2023/08/29 03:32:06;;;;;;;2.00;1.45;;;13.90;4.80;;;;;;5025486;28;20366;-81
2023/08/29 03:34:33;;;;;;;2.60;1.35;;;13.90;1.00;;;;;;5052486;28;20369;-82
2023/08/29 03:36:59;;;;;;;2.08;1.25;;;13.80;15.70;;;;;;5032395;28;20149;-82
2023/08/29 03:39:25;;;;;;;4.35;1.50;;;13.80;21.50;;;;;;5024637;28;20366;-82
2023/08/29 03:41:52;;;;;;;2.90;1.52;;;13.80;31.00;;;;;;5034032;28;20036;-82
2023/08/29 03:44:18;;;;;;;2.95;2.05;;;13.70;45.50;;;;;;5024028;28;20045;-81
2023/08/29 03:46:44;;;;;;;3.00;2.05;;;13.70;53.40;;;;;;5029280;28;20042;-82
2023/08/29 03:49:10;;;;;;;2.58;1.38;;;13.70;47.00;;;;;;5051265;28;20049;-82
2023/08/29 03:51:36;;;;;;;2.80;1.83;;;13.70;45.20;;;;;;5052096;28;20028;-81
2023/08/29 03:54:02;;;;;;;2.28;1.63;;;13.70;42.70;;;;;;5051001;28;20045;-82
2023/08/29 03:56:31;;;;;;;2.58;1.90;;;13.60;47.40;;;;;;5026933;28;20041;-81
2023/08/29 03:58:57;;;;;;;3.25;1.80;;;13.70;57.30;;;;;;5031457;28;20045;-82
2023/08/29 04:01:23;;;;;;;3.67;2.72;;;13.60;58.90;;;;;;5051804;28;20048;-82
2023/08/29 04:03:49;;;;;;;3.95;2.10;;;13.60;55.00;;;;;;5033098;28;20051;-84
2023/08/29 04:06:21;;;;;;;5.80;2.60;;;13.60;44.30;;;;;;5028831;28;20059;-82
2023/08/29 04:08:47;;;;;;;3.17;2.05;;;13.60;33.50;;;;;;5051376;28;20493;-82
2023/08/29 04:11:14;;;;;;;3.00;1.95;;;13.60;27.30;;;;;;5033562;28;20048;-82
2023/08/29 04:13:40;;;;;;;4.43;2.38;;;13.70;17.80;;;;;;5031902;28;20037;-82
2023/08/29 04:16:07;;;;;;;3.65;2.25;;;13.70;5.80;;;;;;5040675;28;20485;-82
2023/08/29 04:18:33;;;;;;;5.00;2.15;;;13.70;1.00;;;;;;5033289;28;20398;-82
2023/08/29 04:20:59;;;;;;;5.55;2.30;;;13.80;1.00;;;;;;5050773;28;20028;-82
2023/08/29 04:23:26;;;;;;;4.18;1.95;;;13.80;1.00;;;;;;5029732;28;20112;-82
2023/08/29 04:25:59;;;;;;;2.92;2.00;;;13.80;1.00;;;;;;5032873;28;20052;-83
2023/08/29 04:28:26;;;;;;;3.88;1.92;;;13.90;1.00;;;;;;5037315;28;20044;-82
2023/08/29 04:30:54;;;;;;;3.35;2.10;;;13.90;1.00;;;;;;5024234;28;20490;-83
2023/08/29 04:33:20;;;;;;;3.83;2.50;;;13.90;1.00;;;;;;5053089;28;20033;-81
2023/08/29 04:35:51;;;;;;;3.08;1.95;;;13.90;1.00;;;;;;5054082;28;20029;-82
2023/08/29 04:38:17;;;;;;;;;;;14.00;1.00;;;;;;5003904;28;20042;-82
2023/08/29 04:40:43;;;;;;;2.92;2.00;;;14.00;1.00;;;;;;5051865;28;19923;-82
2023/08/29 04:43:09;;;;;;;3.03;1.70;;;14.00;1.00;;;;;;5029408;28;20037;-82
2023/08/29 04:45:35;;;;;;;5.07;2.60;;;14.00;1.00;;;;;;5051393;28;20032;-81
2023/08/29 04:48:03;;;;;;;3.40;2.10;;;14.00;1.00;;;;;;5032493;28;20040;-82
2023/08/29 04:50:30;;;;;;;4.65;2.55;;;14.00;1.00;;;;;;5050921;28;20057;-83
2023/08/29 04:52:56;;;;;;;11.82;2.70;;;14.00;1.00;;;;;;5042682;28;20044;-83
2023/08/29 04:55:22;;;;;;;2.72;1.55;;;14.00;1.00;;;;;;5016533;28;20048;-82
2023/08/29 04:57:51;;;;;;;3.45;1.85;;;14.00;1.00;;;;;;5027352;28;20045;-82
2023/08/29 05:00:18;;;;;;;5.35;2.03;;;14.00;1.00;;;;;;5037504;28;20040;-82
2023/08/29 05:02:44;;;;;;;5.07;2.58;;;14.00;1.00;;;;;;5036692;28;20052;-83
2023/08/29 05:05:10;;;;;;;3.50;1.95;;;14.00;1.00;;;;;;5036370;28;20033;-82
2023/08/29 05:07:36;;;;;;;4.97;2.08;;;14.00;1.00;;;;;;5054549;28;20033;-82
2023/08/29 05:10:03;;;;;;;4.50;2.15;;;14.00;1.00;;;;;;5035953;28;20474;-82
2023/08/29 05:12:29;;;;;;;3.28;2.47;;;14.10;1.00;;;;;;5015635;28;20482;-82
2023/08/29 05:14:56;;;;;;;3.42;1.73;;;14.10;1.00;;;;;;5027805;28;20030;-82
2023/08/29 05:17:25;;;;;;;5.38;2.55;;;14.10;1.00;;;;;;5055236;28;20044;-82
2023/08/29 05:19:54;;;;;;;3.15;1.73;;;14.10;1.00;;;;;;5033427;28;20053;-82
2023/08/29 05:22:21;;;;;;;3.80;2.53;;;14.10;1.00;;;;;;5036079;28;20409;-82
2023/08/29 05:24:48;;;;;;;2.70;1.85;;;14.20;1.00;;;;;;5042011;28;20037;-82
2023/08/29 05:27:14;;;;;;;8.52;2.42;;;14.20;1.00;;;;;;5040102;28;20760;-81
2023/08/29 05:29:41;;;;;;;5.40;1.98;;;14.10;1.00;;;;;;5054415;28;20033;-82
2023/08/29 05:32:07;;;;;;;4.25;2.63;;;14.10;1.00;;;;;;5042812;28;20041;-83
2023/08/29 05:34:33;;;;;;;4.85;2.22;;;14.10;1.00;;;;;;5042905;28;20045;-82
2023/08/29 05:37:00;;;;;;;3.45;2.05;;;14.20;1.00;;;;;;5053740;28;20033;-82
2023/08/29 05:39:26;;;;;;;8.75;3.78;;;14.20;1.00;;;;;;5045526;28;20056;-82
2023/08/29 05:41:52;;;;;;;4.38;1.92;;;14.30;1.00;;;;;;5057216;28;20040;-82
2023/08/29 05:44:18;;;;;;;7.20;2.92;;;14.30;1.00;;;;;;5035043;28;20041;-82
2023/08/29 05:46:44;;;;;;;6.32;2.83;;;14.30;1.00;;;;;;5053589;28;20036;-82
2023/08/29 05:49:10;;;;;;;2.67;1.73;;;14.30;1.00;;;;;;5053230;28;20053;-82
2023/08/29 05:51:37;;;;;;;5.45;2.20;;;14.30;1.00;;;;;;5033465;28;20041;-82
2023/08/29 05:54:03;;;;;;;3.95;2.58;;;14.30;1.00;;;;;;5053588;28;20040;-82
2023/08/29 05:56:29;;;;;;;4.20;2.72;;;14.40;1.00;;;;;;5053836;28;20037;-81
2023/08/29 05:58:56;;;;;;;3.60;1.95;;;14.30;1.00;;;;;;5023124;28;20045;-83
2023/08/29 06:01:22;;;;;;;3.03;1.70;;;14.30;1.00;;;;;;5053180;28;20032;-81
2023/08/29 06:03:49;;;;;;;4.10;2.17;;;14.40;1.00;;;;;;5034851;28;20528;-82
2023/08/29 06:06:15;;;;;;;3.38;2.33;;;14.50;1.00;;;;;;5052361;28;20257;-82
2023/08/29 06:08:41;;;;;;;2.25;1.60;;;14.50;1.00;;;;;;5052645;28;20462;-82
2023/08/29 06:11:07;;;;;;;3.05;1.75;;;14.50;1.00;;;;;;5052607;28;20041;-82
2023/08/29 06:13:33;;;;;;;3.45;2.30;;;14.50;1.00;;;;;;5031092;28;20032;-82
2023/08/29 06:15:59;;;;;;;4.95;2.40;;;14.60;1.00;;;;;;5052802;28;20156;-82
2023/08/29 06:18:26;;;;;;;4.00;3.20;;;14.60;99.90;;;;;;5035116;28;20041;-82
2023/08/29 06:20:52;;;;;;;4.78;2.70;;;14.70;99.90;;;;;;5060029;28;20037;-82
2023/08/29 06:23:18;;;;;;;3.95;2.47;;;14.70;99.90;;;;;;5055651;28;20036;-82
2023/08/29 06:25:44;;;;;;;3.95;2.85;;;14.70;99.90;;;;;;5003432;28;20037;-82
2023/08/29 06:28:11;;;;;;;4.22;2.55;;;14.80;99.90;;;;;;5034254;28;20056;-82
2023/08/29 06:30:37;;;;;;;4.70;3.45;;;14.80;99.90;;;;;;5035143;28;20382;-82
2023/08/29 06:33:06;;;;;;;6.53;2.33;;;14.80;99.90;;;;;;5035871;28;20490;-82
2023/08/29 06:35:38;;;;;;;4.00;2.47;;;14.90;99.90;;;;;;5019234;28;20052;-82
2023/08/29 06:38:05;;;;;;;3.95;2.33;;;14.90;99.90;;;;;;5052320;28;20036;-82
2023/08/29 06:40:31;;;;;;;11.07;4.10;;;14.90;99.90;;;;;;5053555;28;20146;-82
2023/08/29 06:42:58;;;;;;;3.95;2.72;;;14.90;99.90;;;;;;5053410;28;20458;-83
2023/08/29 06:45:24;;;;;;;6.40;2.88;;;14.90;99.90;;;;;;5053412;28;20052;-82
2023/08/29 06:47:51;;;;;;;2.92;1.98;;;15.00;99.90;;;;;;5054006;28;20044;-82
2023/08/29 06:50:20;;;;;;;5.05;2.92;;;14.90;99.90;;;;;;5052694;28;20060;-82
2023/08/29 06:52:46;;;;;;;4.40;2.17;;;15.00;99.90;;;;;;5038571;28;20051;-81
2023/08/29 06:55:15;;;;;;;4.75;3.10;;;15.00;99.90;;;;;;5053003;28;20040;-82
2023/08/29 06:57:41;;;;;;;7.65;2.85;;;15.00;99.90;;;;;;5052837;28;20378;-82
2023/08/29 07:00:10;;;;;;;4.53;2.70;;;15.00;99.90;;;;;;5032205;28;20398;-83
2023/08/29 07:02:36;;;;;;;4.65;2.10;;;15.10;99.90;;;;;;5033604;28;20040;-82
2023/08/29 07:05:03;;;;;;;4.07;2.95;;;15.10;99.90;;;;;;5052972;28;20046;-83
2023/08/29 07:07:29;;;;;;;3.97;2.53;;;15.20;99.90;;;;;;5022009;28;20048;-82
2023/08/29 07:09:55;;;;;;;7.35;2.28;;;15.20;99.90;;;;;;5035073;28;20060;-82
2023/08/29 07:12:21;;;;;;;3.50;2.20;;;15.20;99.90;;;;;;5051312;28;20037;-82
2023/08/29 07:14:47;;;;;;;5.82;2.75;;;15.30;99.90;;;;;;5052657;28;20033;-83
2023/08/29 07:17:13;;;;;;;6.40;3.25;;;15.40;99.90;;;;;;5030724;28;20037;-83
2023/08/29 07:19:39;;;;;;;3.95;2.58;;;15.50;99.90;;;;;;5051962;28;20060;-82
2023/08/29 07:22:06;;;;;;;3.90;2.33;;;15.50;99.90;;;;;;5032926;28;20374;-83
2023/08/29 07:24:33;;;;;;;2.60;1.48;;;15.60;99.90;;;;;;5052176;28;20461;-83
2023/08/29 07:26:59;;;;;;;4.50;1.90;;;15.60;99.90;;;;;;5017772;28;20040;-82
2023/08/29 07:29:25;;;;;;;3.58;1.92;;;15.70;99.90;;;;;;5022940;28;20046;-82
2023/08/29 07:31:51;;;;;;;2.47;1.52;;;15.70;99.90;;;;;;5034334;28;20085;-82
2023/08/29 07:34:17;;;;;;;3.70;2.08;;;15.80;99.90;;;;;;5051603;28;20474;-83
2023/08/29 07:36:44;;;;;;;4.68;2.30;;;15.90;99.90;;;;;;5052381;28;20040;-83
2023/08/29 07:39:11;;;;;;;4.80;1.83;;;15.90;99.90;;;;;;5051688;28;20029;-83
2023/08/29 07:41:38;;;;;;;2.30;1.60;;;16.00;99.90;;;;;;5031114;28;20052;-83
2023/08/29 07:44:04;;;;;;;2.75;1.98;;;16.10;99.90;;;;;;5052410;28;20033;-84
2023/08/29 07:46:30;;;;;;;3.80;1.90;;;16.10;99.90;;;;;;5052360;28;20355;-83
2023/08/29 07:48:56;;;;;;;3.30;2.30;;;16.10;97.60;;;;;;5025706;28;20124;-83
2023/08/29 07:51:23;;;;;;;3.20;1.60;;;16.20;99.90;;;;;;5051963;28;20033;-84
2023/08/29 07:53:49;;;;;;;3.10;1.88;;;16.20;80.30;;;;;;5029667;28;20394;-83
2023/08/29 07:56:15;;;;;;;3.67;2.17;;;16.20;95.90;;;;;;5033380;28;20040;-84
2023/08/29 07:58:41;;;;;;;3.35;1.73;;;16.20;92.50;;;;;;5020743;28;20044;-83
2023/08/29 08:01:07;;;;;;;5.82;2.10;;;16.30;92.60;;;;;;5032901;28;20041;-83
2023/08/29 08:03:34;;;;;;;7.05;2.35;;;16.30;77.80;;;;;;5033472;28;20041;-85
2023/08/29 08:06:00;;;;;;;3.03;2.10;;;16.40;47.80;;;;;;5052218;28;20033;-83
2023/08/29 08:08:26;;;;;;;3.63;2.45;;;16.40;75.50;;;;;;5031775;28;20041;-83
2023/08/29 08:10:53;;;;;;;3.10;1.90;;;16.50;52.30;;;;;;5051827;28;20033;-83
2023/08/29 08:13:19;;;;;;;3.28;1.80;;;16.50;52.70;;;;;;5028464;28;20042;-84
2023/08/29 08:15:45;;;;;;;3.28;2.03;;;16.50;29.70;;;;;;5052150;28;20036;-83
2023/08/29 08:18:11;;;;;;;4.43;2.30;;;16.50;17.30;;;;;;5051019;28;20032;-83
2023/08/29 08:20:37;;;;;;;3.00;1.75;;;16.60;18.80;;;;;;5051763;28;20033;-84
2023/08/29 08:23:04;;;;;;;2.70;1.30;;;16.50;24.30;;;;;;5030629;28;20044;-84
2023/08/29 08:25:30;;;;;;;7.25;3.42;;;16.60;1.20;;;;;;5033465;28;20045;-84
2023/08/29 08:27:56;;;;;;;3.83;2.15;;;16.70;1.00;;;;;;5033426;28;20025;-83
2023/08/29 08:30:22;;;;;;;3.65;2.28;;;16.80;1.00;;;;;;5050410;28;20402;-85
2023/08/29 08:32:48;;;;;;;3.33;1.70;;;16.80;1.00;;;;;;5051572;28;20044;-80
2023/08/29 08:35:15;;;;;;;3.28;1.70;;;16.90;1.00;;;;;;5050635;28;20029;-84
2023/08/29 08:37:41;;;;;;;2.88;1.80;;;16.90;1.00;;;;;;5032101;28;20028;-83
2023/08/29 08:40:10;;;;;;;2.97;1.88;;;17.00;1.00;;;;;;5050396;28;20421;-84
2023/08/29 08:42:39;;;;;;;2.22;1.17;;;17.10;1.00;;;;;;5033400;28;20041;-84
2023/08/29 08:45:07;;;;;;;3.65;1.75;;;17.30;1.00;;;;;;5032668;28;20478;-85
2023/08/29 08:47:35;;;;;;;3.78;1.58;;;17.50;1.00;;;;;;5045832;28;20053;-84
2023/08/29 08:50:02;;;;;;;3.63;1.70;;;17.70;1.00;;;;;;5032547;28;20064;-83
2023/08/29 08:52:32;;;;;;;3.90;1.88;;;17.70;1.00;;;;;;5032908;28;20052;-83
2023/08/29 08:54:58;;;;;;;3.83;1.42;;;17.60;1.00;;;;;;5049365;28;20029;-83
2023/08/29 08:57:25;;;;;;;3.33;1.63;;;17.60;1.00;;;;;;5050756;28;20398;-83
2023/08/29 08:59:51;;;;;;;4.15;1.83;;;17.60;1.00;;;;;;5034208;28;20049;-83
2023/08/29 09:02:18;;;;;;;3.03;1.70;;;17.70;1.00;;;;;;5050682;28;20033;-83
2023/08/29 09:04:44;;;;;;;5.82;2.35;;;17.70;1.00;;;;;;5033597;28;20033;-82
2023/08/29 09:07:10;;;;;;;3.70;1.77;;;17.60;1.00;;;;;;5029802;28;20037;-84
2023/08/29 09:09:37;;;;;;;2.17;1.45;;;17.50;1.00;;;;;;5051488;28;20041;-83
2023/08/29 09:12:03;;;;;;;5.72;1.65;;;17.80;1.00;;;;;;5051381;28;20041;-84
2023/08/29 09:14:31;;;;;;;3.85;2.00;;;18.00;1.00;;;;;;5030248;28;20033;-83
2023/08/29 09:17:01;;;;;;;3.30;1.23;;;17.90;1.00;;;;;;5050849;28;20466;-83
2023/08/29 09:19:34;;;;;;;2.75;1.63;;;18.00;1.00;;;;;;5032857;28;20040;-83
2023/08/29 09:22:01;;;;;;;3.00;1.17;;;18.00;1.00;;;;;;5050242;28;20052;-82
2023/08/29 09:24:36;;;;;;;3.33;1.70;;;18.00;99.90;;;;;;5046641;28;20029;-82
2023/08/29 09:27:07;;;;;;;3.42;1.52;;;18.00;99.90;;;;;;5049892;28;20374;-82
2023/08/29 09:29:33;;;;;;;2.20;1.13;;;18.10;1.00;;;;;;5051454;28;20040;-83
2023/08/29 09:32:00;;;;;;;11.57;3.10;;;18.10;99.90;;;;;;5053805;28;20040;-80
2023/08/29 09:34:28;;;;;;;2.97;1.67;;;18.10;99.90;;;;;;5050475;28;20366;-82
2023/08/29 09:36:59;;;;;;;2.15;1.25;;;18.00;99.90;;;;;;5028816;28;20401;-82
2023/08/29 09:39:26;;;;;;;2.05;1.05;;;18.00;99.90;;;;;;5049602;28;20037;-84
2023/08/29 09:42:00;;;;;;;1.90;0.90;;;18.10;99.90;;;;;;5040528;28;20044;-82
2023/08/29 09:44:27;;;;;;;2.75;1.25;;;18.10;99.90;;;;;;5054920;28;20048;-83
2023/08/29 09:46:54;;;;;;;1.50;0.95;;;18.10;99.90;;;;;;5055412;28;20037;-81
2023/08/29 09:49:20;;;;;;;1.90;0.93;;;18.20;99.90;;;;;;5054369;28;20049;-82
2023/08/29 09:51:47;;;;;;;2.05;1.00;;;18.40;99.90;;;;;;5055667;28;20036;-82
2023/08/29 09:54:18;;;;;;;1.58;0.93;;;18.40;99.90;;;;;;5036340;28;20040;-81
2023/08/29 09:56:45;;;;;;;3.50;0.90;;;18.40;99.90;;;;;;5055743;28;20087;-82
2023/08/29 09:59:13;;;;;;;3.25;1.52;;;18.50;99.90;;;;;;5054468;28;20025;-82
2023/08/29 10:01:44;;;;;;;2.80;1.00;;;18.40;99.90;;;;;;5054353;28;20051;-82
2023/08/29 10:04:14;;;;;;;2.35;1.00;;;18.50;99.90;;;;;;5054841;28;20037;-82
2023/08/29 10:06:44;;;;;;;2.13;1.23;;;18.70;99.90;;;;;;5053624;28;20394;-83
2023/08/29 10:09:10;;;;;;;3.15;1.05;;;18.70;99.90;;;;;;5052443;28;20032;-82
2023/08/29 10:11:37;;;;;;;1.42;0.95;;;18.70;99.90;;;;;;5036670;28;20077;-81
2023/08/29 10:14:05;;;;;;;1.38;0.80;;;18.80;99.90;;;;;;5033281;28;20040;-81
2023/08/29 10:16:32;;;;;;;1.77;0.90;;;18.80;99.90;;;;;;5053240;28;20304;-83
2023/08/29 10:18:58;;;;;;;1.83;1.00;;;18.90;99.90;;;;;;5053517;28;20421;-82
2023/08/29 10:21:28;;;;;;;1.42;0.70;;;18.80;99.90;;;;;;5055054;28;20037;-83
2023/08/29 10:23:54;;;;;;;1.13;0.63;;;18.70;99.90;;;;;;5035401;28;20056;-83
2023/08/29 10:26:23;;;;;;;1.77;0.82;;;18.60;99.90;;;;;;5053276;28;20036;-85
2023/08/29 10:28:50;;;;;;;2.38;1.13;;;18.80;99.90;;;;;;5046469;28;20045;-82
2023/08/29 10:31:18;;;;;;;3.58;1.58;;;18.90;99.90;;;;;;5034471;28;20041;-82
2023/08/29 10:33:44;;;;;;;2.17;0.80;;;19.10;99.90;;;;;;5053127;28;20398;-83
2023/08/29 10:36:10;;;;;;;1.40;0.68;;;19.30;99.90;;;;;;5035225;28;20033;-81
2023/08/29 10:38:40;;;;;;;2.40;1.05;;;19.40;99.90;;;;;;5052519;28;20036;-83
2023/08/29 10:41:06;;;;;;;2.92;0.88;;;19.50;99.90;;;;;;5053143;28;20044;-82
2023/08/29 10:43:34;;;;;;;1.23;0.88;;;19.40;99.90;;;;;;5052487;28;20056;-82
2023/08/29 10:46:14;;;;;;;2.17;1.08;;;19.50;99.90;;;;;;5060133;28;20036;-82
2023/08/29 10:48:46;;;;;;;2.30;0.93;;;19.60;99.90;;;;;;5067970;28;20060;-83
2023/08/29 10:51:19;;;;;;;2.42;1.10;;;19.60;99.90;;;;;;5025761;28;20044;-84
2023/08/29 10:54:05;;;;;;;2.42;0.90;;;19.40;99.90;;;;;;5051048;28;20020;-81
2023/08/29 10:56:42;;;;;;;2.60;0.80;;;19.70;99.90;;;;;;5050259;28;20044;-87
2023/08/29 10:59:30;;;;;;;2.75;1.15;;;19.90;99.90;;;;;;5031157;28;20045;-84
2023/08/29 11:02:26;;;;;;;1.58;0.82;;;19.80;99.90;;;;;;5035886;28;20044;-86
2023/08/29 11:05:04;;;;;;;0.95;0.65;;;19.90;99.90;;;;;;5054730;28;20033;-87
2023/08/29 11:07:31;;;;;;;1.70;0.60;;;19.90;99.90;;;;;;5037897;28;20386;-88
2023/08/29 11:10:16;;;;;;;1.80;1.02;;;20.10;99.90;;;;;;5036651;28;20037;-91
2023/08/29 11:13:09;;;;;;;1.80;0.60;;;20.40;99.90;;;;;;5053739;28;20027;-90
2023/08/29 11:16:05;;;;;;;2.45;0.80;;;20.60;99.90;;;;;;5036784;28;20193;-88
2023/08/29 11:18:34;;;;;;;1.00;0.50;;;20.60;99.90;;;;;;5024233;28;20044;-87
2023/08/29 11:21:08;;;;;;;1.45;0.50;;;20.40;97.10;;;;;;5020910;28;20383;-88
2023/08/29 11:23:42;;;;;;;3.03;1.02;;;20.00;99.90;;;;;;5037990;28;20045;-88
2023/08/29 11:26:11;;;;;;;1.40;0.60;;;19.80;99.90;;;;;;5037989;28;20029;-90
2023/08/29 11:28:42;;;;;;;2.35;1.40;;;19.60;99.90;;;;;;5021848;28;20037;-90
2023/08/29 11:31:09;;;;;;;1.10;0.70;;;19.90;99.90;;;;;;5033620;28;20033;-90
2023/08/29 11:33:36;;;;;;;1.95;1.02;;;20.00;99.90;;;;;;5036921;28;20048;-89
2023/08/29 11:36:05;;;;;;;1.38;0.60;;;20.00;99.90;;;;;;5047931;28;20032;-91
2023/08/29 11:38:32;;;;;;;1.10;0.60;;;20.00;99.90;;;;;;5036179;28;20048;-87
2023/08/29 11:41:03;;;;;;;1.95;0.90;;;20.20;99.90;;;;;;5065822;28;20036;-90
2023/08/29 11:43:34;;;;;;;1.98;0.93;;;20.10;99.90;;;;;;5058642;28;20025;-91
2023/08/29 11:46:02;;;;;;;1.60;0.90;;;19.90;99.90;;;;;;5045508;28;20037;-91
2023/08/29 11:48:30;;;;;;;1.58;0.77;;;19.90;99.90;;;;;;5057487;28;20047;-85
2023/08/29 11:51:03;;;;;;;1.08;0.77;;;20.20;99.90;;;;;;5065039;28;20047;-91
2023/08/29 11:53:32;;;;;;;1.13;0.70;;;20.20;99.90;;;;;;5050171;28;20037;-90
2023/08/29 11:56:01;;;;;;;2.55;0.88;;;20.10;99.90;;;;;;5072439;28;20023;-87
2023/08/29 11:58:28;;;;;;;1.92;0.95;;;20.10;99.90;;;;;;5035108;28;20041;-87
2023/08/29 12:00:55;;;;;;;4.20;1.35;;;20.10;99.90;;;;;;5053393;28;20041;-92
2023/08/29 12:03:23;;;;;;;2.25;0.68;;;20.20;99.90;;;;;;5055554;28;20033;-89
2023/08/29 12:05:49;;;;;;;1.10;0.60;;;20.20;99.90;;;;;;5012423;28;20038;-85
2023/08/29 12:08:16;;;;;;;2.95;1.05;;;20.30;99.90;;;;;;5051576;28;20029;-91
2023/08/29 12:10:55;;;;;;;2.22;0.95;;;20.20;99.90;;;;;;5018336;28;20042;-93
2023/08/29 12:13:21;;;;;;;2.90;0.57;;;20.30;99.90;;;;;;5051921;28;20036;-91
2023/08/29 12:15:48;;;;;;;1.30;0.90;;;20.20;99.90;;;;;;5052458;28;20025;-92
2023/08/29 12:18:25;;;;;;;1.35;0.57;;;20.10;99.90;;;;;;5019185;28;20159;-91
2023/08/29 12:21:08;;;;;;;0.98;0.50;;;20.20;99.90;;;;;;5039624;28;20024;-92
2023/08/29 12:23:34;;;;;;;2.17;0.60;;;20.30;99.90;;;;;;5043387;28;20057;-91
2023/08/29 12:26:00;;;;;;;1.92;1.08;;;20.10;99.90;;;;;;5061176;28;20025;-89
2023/08/29 12:28:27;;;;;;;1.48;0.60;;;20.00;99.90;;;;;;5042105;28;20394;-92
2023/08/29 12:30:54;;;;;;;1.25;0.75;;;19.70;99.90;;;;;;5057145;28;20037;-85
2023/08/29 12:33:23;;;;;;;0.73;0.43;;;19.40;99.90;;;;;;5024038;28;20068;-87
2023/08/29 12:35:50;;;;;;;0.50;0.28;;;19.30;99.90;;;;;;5054002;28;20037;-85
2023/08/29 12:38:16;;;;;;;0.68;0.30;;;19.30;99.90;;;;;;5035344;28;20041;-86
2023/08/29 12:40:47;;;;;;;0.85;0.30;;;19.40;99.90;;;;;;5053988;28;20385;-93
2023/08/29 12:43:16;;;;;;;0.30;0.30;;;19.30;99.90;;;;;;5053446;28;20041;-90
2023/08/29 12:45:46;;;;;;;0.82;0.40;;;19.20;92.40;;;;;;5053115;28;20033;-87
2023/08/29 12:48:13;;;;;;;0.52;0.20;;;19.20;99.70;;;;;;5050220;28;20037;-90
2023/08/29 12:50:40;;;;;;;0.30;0.22;;;19.30;87.80;;;;;;5055164;28;20071;-86
2023/08/29 12:53:06;;;;;;;2.25;0.30;;;19.30;86.00;;;;;;5021007;28;20064;-88
2023/08/29 12:55:35;;;;;;;0.52;0.25;;;19.30;88.80;;;;;;5052849;28;20029;-90
2023/08/29 12:58:01;;;;;;;0.45;0.20;;;19.40;88.90;;;;;;5053573;28;20033;-89